Time;durP1;ratioP1;P1;durP2;ratioP2;P2;SDS_P1;SDS_P2;PMS_P1;PMS_P2;Temp;Humidity;BMP_temperature;BMP_pressure;BME280_temperature;BME280_humidity;BME280_pressure;Samples;Min_cycle;Max_cycle;Signal;HPM_P1;HPM_P2
2022/05/07 00:01:32;;;;;;;5.50;4.30;;;;;;;16.21;54.95;100548.50;4956490;28;20400;-80
2022/05/07 00:03:59;;;;;;;6.10;4.10;;;;;;;16.18;54.94;100549.66;4964663;28;20062;-81
2022/05/07 00:06:26;;;;;;;8.40;4.22;;;;;;;16.17;54.76;100549.81;4963004;28;20047;-80
2022/05/07 00:08:53;;;;;;;12.10;4.82;;;;;;;16.12;54.95;100554.78;4946754;28;20051;-80
2022/05/07 00:11:23;;;;;;;6.90;4.18;;;;;;;16.11;55.07;100555.81;4971752;28;20410;-80
2022/05/07 00:13:50;;;;;;;11.63;4.07;;;;;;;16.08;54.90;100551.59;4966416;28;20549;-80
2022/05/07 00:19:03;;;;;;;7.15;4.45;;;;;;;16.01;55.23;100545.16;4965245;28;20489;-80
2022/05/07 00:21:29;;;;;;;5.90;4.40;;;;;;;15.99;55.20;100539.94;4956214;28;20054;-80
2022/05/07 00:23:57;;;;;;;6.28;4.10;;;;;;;15.98;55.18;100543.63;4970125;28;20054;-80
2022/05/07 00:26:24;;;;;;;9.25;3.88;;;;;;;15.96;55.15;100544.78;4979983;28;20057;-80
2022/05/07 00:28:50;;;;;;;11.02;4.88;;;;;;;15.94;54.99;100541.41;4986521;28;20042;-80
2022/05/07 00:31:17;;;;;;;7.70;4.82;;;;;;;15.90;54.83;100550.72;4998932;28;20042;-80
2022/05/07 00:33:44;;;;;;;5.88;3.92;;;;;;;15.84;54.69;100549.50;4968677;28;20038;-80
2022/05/07 00:36:11;;;;;;;4.80;3.50;;;;;;;15.78;54.53;100561.69;4982901;28;20049;-80
2022/05/07 00:38:37;;;;;;;5.97;3.33;;;;;;;15.72;54.90;100556.94;4982155;28;20042;-80
2022/05/07 00:41:04;;;;;;;6.72;3.95;;;;;;;15.67;54.90;100553.81;4988181;28;20065;-80
2022/05/07 00:43:39;;;;;;;4.72;3.28;;;;;;;15.64;55.17;100552.28;4983355;28;20402;-84
2022/05/07 00:46:06;;;;;;;4.38;3.53;;;;;;;15.63;55.33;100547.09;4927985;28;20046;-83
2022/05/07 00:48:33;;;;;;;7.60;4.45;;;;;;;15.62;55.14;100561.44;4968234;28;20109;-84
2022/05/07 00:53:47;;;;;;;9.18;3.97;;;;;;;15.51;55.23;100551.81;4965500;28;20105;-82
2022/05/07 00:56:15;;;;;;;7.53;4.00;;;;;;;15.46;55.48;100548.72;4970256;28;20509;-84
2022/05/07 00:58:42;;;;;;;9.00;4.32;;;;;;;15.46;55.33;100540.72;4982603;28;20046;-84
2022/05/07 01:01:10;;;;;;;5.78;3.92;;;;;;;15.42;55.42;100550.03;4977883;28;20042;-85
2022/05/07 01:03:38;;;;;;;4.70;3.85;;;;;;;15.39;55.41;100547.63;4950698;28;20077;-82
2022/05/07 01:06:05;;;;;;;6.63;3.75;;;;;;;15.36;55.38;100550.63;4951780;28;20108;-84
2022/05/07 01:08:33;;;;;;;7.80;4.35;;;;;;;15.35;55.46;100539.09;4967902;28;20058;-85
2022/05/07 01:11:00;;;;;;;5.95;4.38;;;;;;;15.18;56.20;100538.03;4985579;28;20496;-84
2022/05/07 01:13:27;;;;;;;7.28;4.68;;;;;;;15.19;55.88;100542.41;4952103;28;20046;-84
2022/05/07 01:15:57;;;;;;;5.80;4.15;;;;;;;15.20;55.90;100540.56;4948685;28;20054;-84
2022/05/07 01:18:28;;;;;;;7.10;4.45;;;;;;;15.26;55.90;100544.47;4982507;28;20058;-84
2022/05/07 01:20:57;;;;;;;7.53;4.47;;;;;;;15.24;55.98;100543.78;4985712;28;20097;-85
2022/05/07 01:23:26;;;;;;;9.85;4.68;;;;;;;15.24;55.97;100539.31;4987849;28;20114;-84
2022/05/07 01:25:58;;;;;;;7.60;4.50;;;;;;;15.18;56.04;100538.03;4984130;28;20046;-84
2022/05/07 01:28:29;;;;;;;8.75;4.30;;;;;;;15.21;55.75;100531.53;4988137;28;20058;-84
2022/05/07 01:30:56;;;;;;;7.88;4.57;;;;;;;15.22;55.84;100543.13;4965691;28;20047;-84
2022/05/07 01:33:23;;;;;;;15.10;5.05;;;;;;;15.11;56.09;100534.28;4998790;28;20042;-84
2022/05/07 01:35:50;;;;;;;9.43;4.88;;;;;;;15.14;55.95;100534.00;4982362;28;20101;-84
2022/05/07 01:38:18;;;;;;;8.85;4.95;;;;;;;15.16;55.94;100545.38;4986189;28;20517;-84
2022/05/07 01:40:46;;;;;;;9.02;4.40;;;;;;;15.14;56.13;100542.00;4968676;28;20055;-84
2022/05/07 01:43:13;;;;;;;4.72;4.18;;;;;;;15.13;55.91;100539.47;4963954;28;20081;-84
2022/05/07 01:45:41;;;;;;;7.88;4.40;;;;;;;15.10;55.93;100537.94;4967311;28;20050;-84
2022/05/07 01:48:11;;;;;;;8.15;4.60;;;;;;;15.09;56.15;100551.47;4981958;28;20117;-84
2022/05/07 01:50:46;;;;;;;5.97;4.32;;;;;;;15.05;56.12;100540.22;4995046;28;20062;-83
2022/05/07 01:53:16;;;;;;;6.07;4.00;;;;;;;15.04;56.03;100545.72;4972688;28;20039;-86
2022/05/07 01:55:48;;;;;;;6.18;4.07;;;;;;;15.00;56.09;100542.50;4984415;28;20097;-86
2022/05/07 01:58:16;;;;;;;7.45;3.85;;;;;;;14.96;55.96;100533.09;4985713;28;20129;-86
2022/05/07 02:00:43;;;;;;;5.68;3.95;;;;;;;14.93;56.25;100534.22;4985612;28;20046;-86
2022/05/07 02:03:10;;;;;;;6.35;4.15;;;;;;;14.93;56.15;100538.72;4988862;28;20066;-86
2022/05/07 02:05:37;;;;;;;6.78;4.20;;;;;;;14.90;56.17;100536.34;4995725;28;20039;-88
2022/05/07 02:08:04;;;;;;;5.82;4.15;;;;;;;14.90;56.24;100536.34;4985819;28;20060;-86
2022/05/07 02:10:31;;;;;;;7.15;4.20;;;;;;;14.89;56.19;100532.00;4969233;28;20042;-87
2022/05/07 02:13:01;;;;;;;5.75;3.88;;;;;;;14.88;56.14;100536.50;4970981;28;20048;-86
2022/05/07 02:15:31;;;;;;;6.85;4.68;;;;;;;14.88;56.12;100532.97;4987270;28;20143;-86
2022/05/07 02:17:58;;;;;;;9.05;4.50;;;;;;;14.85;56.04;100531.41;4966290;28;20050;-83
2022/05/07 02:20:25;;;;;;;7.10;4.15;;;;;;;14.81;56.32;100532.72;4966618;28;20129;-84
2022/05/07 02:22:57;;;;;;;6.75;4.45;;;;;;;14.81;56.20;100532.72;4983211;28;20042;-84
2022/05/07 02:25:24;;;;;;;9.13;3.90;;;;;;;14.81;56.06;100538.06;4996325;28;20429;-84
2022/05/07 02:27:57;;;;;;;7.80;4.07;;;;;;;14.80;56.26;100539.03;4958343;28;20048;-84
2022/05/07 02:30:24;;;;;;;6.80;4.00;;;;;;;14.78;56.12;100530.31;4971557;28;20398;-84
2022/05/07 02:32:58;;;;;;;9.13;4.32;;;;;;;14.71;56.27;100523.88;4965757;28;20051;-84
2022/05/07 02:35:25;;;;;;;7.73;4.20;;;;;;;14.73;56.12;100535.25;4954930;28;20050;-84
2022/05/07 02:37:53;;;;;;;11.52;3.92;;;;;;;14.69;56.18;100537.38;4953132;28;20449;-84
2022/05/07 02:40:20;;;;;;;5.60;4.50;;;;;;;14.71;56.03;100532.75;4967733;28;20395;-84
2022/05/07 02:42:49;;;;;;;8.15;4.28;;;;;;;14.64;56.01;100531.63;4969968;28;20509;-84
2022/05/07 02:45:17;;;;;;;7.28;3.95;;;;;;;14.63;56.12;100531.78;4970852;28;20062;-84
2022/05/07 02:47:48;;;;;;;7.20;3.90;;;;;;;14.62;55.96;100524.75;4995604;28;20104;-84
2022/05/07 02:50:18;;;;;;;8.35;4.20;;;;;;;14.59;55.82;100525.03;4983407;28;20405;-84
2022/05/07 02:52:45;;;;;;;8.73;4.85;;;;;;;14.53;56.08;100527.31;4972816;28;20054;-84
2022/05/07 02:55:12;;;;;;;5.25;3.65;;;;;;;14.47;56.13;100522.50;4954981;28;20046;-82
2022/05/07 02:57:42;;;;;;;4.93;3.78;;;;;;;14.48;56.29;100521.53;4984513;28;20060;-78
2022/05/07 03:00:10;;;;;;;6.60;3.97;;;;;;;14.49;56.23;100517.84;4971662;28;20123;-78
2022/05/07 03:02:37;;;;;;;5.82;3.85;;;;;;;14.49;56.13;100520.53;4972484;28;20062;-78
2022/05/07 03:05:06;;;;;;;5.70;4.15;;;;;;;14.46;56.09;100526.16;4978347;28;20062;-78
2022/05/07 03:07:33;;;;;;;6.57;3.83;;;;;;;14.45;56.27;100527.16;4986917;28;20059;-78
2022/05/07 03:10:04;;;;;;;6.32;4.05;;;;;;;14.42;56.27;100523.91;4962722;28;20054;-78
2022/05/07 03:12:31;;;;;;;4.93;3.80;;;;;;;14.40;56.24;100534.78;4963237;28;20058;-78
2022/05/07 03:14:59;;;;;;;5.53;4.20;;;;;;;14.39;56.26;100530.38;4965434;28;20038;-78
2022/05/07 03:17:34;;;;;;;5.65;4.35;;;;;;;14.36;56.28;100529.84;4980202;28;20410;-78
2022/05/07 03:20:06;;;;;;;6.10;3.63;;;;;;;14.38;56.42;100525.22;4959916;28;20049;-78
2022/05/07 03:22:33;;;;;;;6.75;3.88;;;;;;;14.36;56.15;100533.34;4985876;28;20491;-82
2022/05/07 03:24:59;;;;;;;5.78;4.43;;;;;;;14.32;56.42;100532.81;4983295;28;20126;-81
2022/05/07 03:27:32;;;;;;;5.07;3.65;;;;;;;14.29;56.49;100526.88;4986852;28;20054;-81
2022/05/07 03:29:59;;;;;;;5.35;3.90;;;;;;;14.28;56.58;100526.06;4969459;28;20383;-81
2022/05/07 03:32:31;;;;;;;6.75;4.03;;;;;;;14.26;56.38;100535.19;4951498;28;20050;-82
2022/05/07 03:34:58;;;;;;;8.35;3.95;;;;;;;14.26;56.36;100530.69;4966443;28;20065;-81
2022/05/07 03:37:26;;;;;;;11.43;4.07;;;;;;;14.25;56.37;100533.53;4949127;28;20050;-81
2022/05/07 03:39:53;;;;;;;6.35;3.70;;;;;;;14.20;56.34;100535.78;4968164;28;20051;-81
2022/05/07 03:42:21;;;;;;;12.20;4.10;;;;;;;14.16;56.33;100532.53;4969958;28;20158;-81
2022/05/07 03:44:50;;;;;;;7.22;4.07;;;;;;;14.13;56.39;100532.81;4990452;28;20042;-81
2022/05/07 03:47:17;;;;;;;10.68;4.32;;;;;;;14.10;56.41;100528.59;4977562;28;20046;-81
2022/05/07 03:49:45;;;;;;;4.68;3.53;;;;;;;14.05;56.83;100530.84;4990181;28;20054;-81
2022/05/07 03:55:01;;;;;;;5.82;3.65;;;;;;;14.01;56.69;100533.94;4925762;28;20091;-81
2022/05/07 03:57:30;;;;;;;4.82;3.90;;;;;;;13.97;56.89;100540.53;4965052;28;20056;-81
2022/05/07 03:59:57;;;;;;;5.55;3.67;;;;;;;13.97;56.74;100527.19;4969929;28;20493;-82
2022/05/07 04:02:25;;;;;;;10.77;4.30;;;;;;;13.96;57.13;100529.03;4986513;28;20140;-81
2022/05/07 04:04:56;;;;;;;8.52;3.63;;;;;;;13.96;57.13;100530.84;4968379;28;20055;-81
2022/05/07 04:07:23;;;;;;;6.63;3.75;;;;;;;13.93;57.09;100534.66;4980572;28;20065;-81
2022/05/07 04:10:02;;;;;;;5.72;3.67;;;;;;;13.91;57.20;100536.59;4968581;28;20042;-82
2022/05/07 04:12:34;;;;;;;6.93;4.20;;;;;;;13.89;57.09;100535.91;4987118;28;20096;-81
2022/05/07 04:15:02;;;;;;;6.38;4.13;;;;;;;13.88;57.12;100543.06;4984288;28;20235;-81
2022/05/07 04:17:32;;;;;;;5.35;3.83;;;;;;;13.86;57.11;100538.84;4979693;28;20046;-82
2022/05/07 04:20:04;;;;;;;4.78;4.00;;;;;;;13.87;57.11;100538.72;4984262;28;20053;-81
2022/05/07 04:22:34;;;;;;;8.65;4.18;;;;;;;13.87;57.25;100535.22;4981280;28;20046;-81
2022/05/07 04:25:00;;;;;;;8.18;3.97;;;;;;;13.85;57.09;100538.00;4974483;28;20050;-81
2022/05/07 04:27:27;;;;;;;4.97;4.15;;;;;;;13.83;57.69;100547.16;4968969;28;20046;-81
2022/05/07 04:29:58;;;;;;;7.25;4.35;;;;;;;13.91;57.33;100549.94;4985192;28;20564;-81
2022/05/07 04:32:27;;;;;;;6.10;3.80;;;;;;;13.91;57.52;100541.94;4968340;28;20077;-81
2022/05/07 04:34:56;;;;;;;8.20;4.75;;;;;;;13.92;57.00;100542.78;4986797;28;20631;-81
2022/05/07 04:37:25;;;;;;;9.50;4.35;;;;;;;13.89;57.15;100543.91;4967162;28;20054;-80
2022/05/07 04:39:52;;;;;;;7.82;4.82;;;;;;;13.84;57.08;100543.47;4968008;28;20089;-81
2022/05/07 04:42:19;;;;;;;6.82;4.32;;;;;;;13.86;57.10;100542.34;4965424;28;20046;-81
2022/05/07 04:44:53;;;;;;;9.70;4.50;;;;;;;13.87;56.99;100553.91;4966782;28;20070;-81
2022/05/07 04:47:39;;;;;;;7.30;4.55;;;;;;;13.83;57.02;100549.81;4971744;28;20110;-81
2022/05/07 04:50:12;;;;;;;6.28;5.00;;;;;;;13.83;56.87;100547.97;4984628;28;20050;-82
2022/05/07 04:52:46;;;;;;;7.35;4.13;;;;;;;13.84;57.02;100548.81;4981551;28;20038;-82
2022/05/07 04:55:13;;;;;;;5.70;4.97;;;;;;;13.83;56.83;100547.97;4966241;28;20035;-81
2022/05/07 04:57:41;;;;;;;7.32;4.68;;;;;;;13.85;56.84;100555.88;4984592;28;20046;-82
2022/05/07 05:00:08;;;;;;;5.68;3.90;;;;;;;13.87;56.86;100545.91;4985253;28;20054;-81
2022/05/07 05:03:07;;;;;;;6.95;4.85;;;;;;;13.88;57.02;100551.06;4926692;28;20050;-81
2022/05/07 05:05:38;;;;;;;7.60;3.97;;;;;;;13.91;57.02;100552.63;4979559;28;20121;-81
2022/05/07 05:08:12;;;;;;;6.55;4.35;;;;;;;13.89;57.07;100546.56;4995658;28;20136;-81
2022/05/07 05:10:39;;;;;;;5.57;4.05;;;;;;;13.92;57.12;100550.78;4986018;28;20469;-81
2022/05/07 05:13:06;;;;;;;6.13;4.43;;;;;;;13.96;57.33;100552.22;4998338;28;20096;-81
2022/05/07 05:15:35;;;;;;;7.10;4.13;;;;;;;13.98;57.08;100558.25;4986318;28;20490;-81
2022/05/07 05:18:06;;;;;;;6.38;4.72;;;;;;;14.03;57.19;100561.34;4984289;28;20046;-82
2022/05/07 05:20:37;;;;;;;8.32;4.78;;;;;;;14.05;57.41;100557.56;4986906;28;20129;-81
2022/05/07 05:23:17;;;;;;;9.23;4.50;;;;;;;14.15;57.29;100562.06;4983066;28;20046;-81
2022/05/07 05:25:46;;;;;;;7.35;4.50;;;;;;;14.18;57.33;100562.63;4950194;28;20049;-81
2022/05/07 05:28:33;;;;;;;4.78;4.13;;;;;;;14.23;57.14;100565.72;4959810;28;20133;-81
2022/05/07 05:31:06;;;;;;;5.97;4.70;;;;;;;14.27;57.31;100563.59;4958911;28;20129;-81
2022/05/07 05:33:38;;;;;;;;;;;;;;;14.20;57.50;100566.00;4950775;28;20094;-82
2022/05/07 05:36:10;;;;;;;6.60;4.35;;;;;;;14.34;57.51;100570.06;4961344;28;20825;-81
2022/05/07 05:38:40;;;;;;;6.40;4.55;;;;;;;14.35;57.35;100569.09;4962531;28;20057;-79
2022/05/07 05:41:09;;;;;;;6.72;4.90;;;;;;;14.37;57.21;100572.44;4965347;28;20065;-79
2022/05/07 05:43:40;;;;;;;6.05;4.53;;;;;;;14.42;57.44;100572.00;4967236;28;20077;-79
2022/05/07 05:46:08;;;;;;;7.20;4.40;;;;;;;14.49;57.61;100567.78;4943282;28;20102;-79
2022/05/07 05:48:35;;;;;;;9.80;5.05;;;;;;;14.51;57.58;100577.34;4951955;28;20042;-79
2022/05/07 05:51:04;;;;;;;10.43;5.03;;;;;;;14.51;57.62;100564.00;4947146;28;20105;-79
2022/05/07 05:53:35;;;;;;;10.65;5.10;;;;;;;14.51;57.98;100569.34;4947796;28;20796;-79
2022/05/07 05:56:03;;;;;;;10.38;5.07;;;;;;;14.53;57.91;100572.75;4948345;28;20126;-79
2022/05/07 05:58:44;;;;;;;7.95;4.63;;;;;;;14.59;58.00;100573.16;4934002;28;20471;-79
2022/05/07 06:01:13;;;;;;;8.40;4.53;;;;;;;14.72;58.25;100576.34;4969063;28;20039;-79
2022/05/07 06:03:57;;;;;;;5.85;4.25;;;;;;;14.76;58.02;100572.41;4949190;28;20109;-79
2022/05/07 06:06:24;;;;;;;6.60;4.53;;;;;;;14.79;57.79;100569.44;4949484;28;20692;-79
2022/05/07 06:08:50;;;;;;;8.13;4.93;;;;;;;14.82;58.10;100568.31;4969581;28;20055;-79
2022/05/07 06:11:19;;;;;;;7.13;4.00;;;;;;;14.83;58.27;100573.50;4957221;28;20074;-79
2022/05/07 06:13:47;;;;;;;6.35;4.55;;;;;;;14.86;58.19;100567.88;4952332;28;20066;-80
2022/05/07 06:16:14;;;;;;;11.85;4.57;;;;;;;14.90;58.21;100571.09;4947927;28;20039;-79
2022/05/07 06:18:41;;;;;;;6.20;4.63;;;;;;;14.92;58.76;100572.63;4971330;28;20046;-79
2022/05/07 06:21:10;;;;;;;8.02;4.47;;;;;;;15.01;58.57;100576.28;4973017;28;20051;-79
2022/05/07 06:23:41;;;;;;;5.32;4.40;;;;;;;15.01;58.67;100575.41;4943553;28;20046;-80
2022/05/07 06:29:01;;;;;;;8.88;4.82;;;;;;;15.04;58.80;100580.50;4940220;28;20065;-76
2022/05/07 06:31:33;;;;;;;7.40;4.57;;;;;;;15.06;58.94;100575.81;4965300;28;20042;-76
2022/05/07 06:34:09;;;;;;;11.90;4.95;;;;;;;15.11;58.82;100576.22;4966394;28;20058;-76
2022/05/07 06:36:44;;;;;;;9.02;4.40;;;;;;;15.12;59.24;100580.59;4991542;28;20130;-76
2022/05/07 06:39:12;;;;;;;8.40;4.53;;;;;;;15.14;59.35;100573.28;4981949;28;20050;-77
2022/05/07 06:41:40;;;;;;;7.50;4.75;;;;;;;15.18;59.59;100574.66;4970189;28;20038;-76
2022/05/07 06:44:07;;;;;;;8.10;4.85;;;;;;;15.24;59.08;100571.41;4968616;28;20049;-76
2022/05/07 06:46:33;;;;;;;7.65;5.18;;;;;;;15.28;59.18;100577.28;4979532;28;20046;-76
2022/05/07 06:49:06;;;;;;;6.22;4.70;;;;;;;15.35;58.84;100570.34;4981172;28;20042;-76
2022/05/07 06:51:43;;;;;;;5.65;4.43;;;;;;;15.37;59.30;100574.56;4999858;28;20101;-76
2022/05/07 06:54:10;;;;;;;6.32;4.93;;;;;;;15.37;59.54;100577.25;4989774;28;20130;-76
2022/05/07 06:56:37;;;;;;;5.85;4.28;;;;;;;15.38;59.52;100573.56;4985037;28;20613;-76
2022/05/07 06:59:04;;;;;;;7.13;4.70;;;;;;;15.40;59.67;100576.94;4985542;28;20829;-76
2022/05/07 07:01:31;;;;;;;10.30;5.00;;;;;;;15.46;59.82;100577.34;4989017;28;20411;-76
2022/05/07 07:03:58;;;;;;;6.50;3.85;;;;;;;15.46;60.04;100577.34;4982310;28;20049;-76
2022/05/07 07:06:24;;;;;;;6.80;4.47;;;;;;;15.50;60.37;100578.75;4989127;28;20403;-76
2022/05/07 07:08:52;;;;;;;7.47;4.65;;;;;;;15.49;60.21;100579.72;4951307;28;20086;-76
2022/05/07 07:11:20;;;;;;;7.60;4.80;;;;;;;15.52;60.19;100580.28;4990347;28;20049;-76
2022/05/07 07:13:47;;;;;;;9.25;4.90;;;;;;;15.55;60.71;100585.31;4987434;28;20047;-76
2022/05/07 07:16:14;;;;;;;10.80;4.57;;;;;;;15.53;60.39;100573.06;4983648;28;20379;-76
2022/05/07 07:18:41;;;;;;;7.30;4.78;;;;;;;15.54;60.40;100572.06;4984701;28;20074;-76
2022/05/07 07:21:07;;;;;;;10.95;5.72;;;;;;;15.58;60.64;100576.97;4985897;28;20517;-76
2022/05/07 07:23:34;;;;;;;7.95;5.10;;;;;;;15.64;61.22;100570.19;4981620;28;20145;-77
2022/05/07 07:26:01;;;;;;;7.13;5.30;;;;;;;15.68;61.01;100573.41;4982478;28;20054;-76
2022/05/07 07:28:28;;;;;;;9.63;5.90;;;;;;;15.66;61.48;100570.03;4981877;28;20490;-76
2022/05/07 07:30:54;;;;;;;8.32;5.50;;;;;;;15.68;61.57;100570.75;4980091;28;20564;-77
2022/05/07 07:33:21;;;;;;;8.45;5.18;;;;;;;15.66;61.54;100565.53;4981318;28;20065;-77
2022/05/07 07:35:48;;;;;;;7.32;5.35;;;;;;;15.72;61.92;100569.47;4980416;28;20041;-77
2022/05/07 07:38:14;;;;;;;8.93;5.28;;;;;;;15.77;61.82;100572.53;4978726;28;20061;-77
2022/05/07 07:40:43;;;;;;;7.85;5.47;;;;;;;15.78;61.94;100572.38;4963158;28;20050;-77
2022/05/07 07:43:11;;;;;;;12.38;6.20;;;;;;;15.81;61.99;100566.72;4998690;28;20046;-77
2022/05/07 07:48:23;;;;;;;7.03;5.68;;;;;;;15.94;62.07;100565.50;4982973;28;20042;-77
2022/05/07 07:50:50;;;;;;;13.40;6.90;;;;;;;16.04;62.12;100561.75;4984803;28;20050;-77
2022/05/07 07:53:17;;;;;;;10.77;6.50;;;;;;;16.09;62.26;100566.66;5005120;28;20038;-77
2022/05/07 07:55:43;;;;;;;10.25;5.60;;;;;;;16.19;62.16;100566.59;4979123;28;20669;-77
2022/05/07 07:58:11;;;;;;;7.53;5.65;;;;;;;16.21;61.45;100557.41;4985183;28;20050;-78
2022/05/07 08:00:38;;;;;;;8.23;5.07;;;;;;;16.24;62.28;100559.75;4987478;28;20068;-77
2022/05/07 08:03:12;;;;;;;9.63;5.38;;;;;;;16.18;62.38;100555.03;4959669;28;20445;-77
2022/05/07 08:05:41;;;;;;;9.50;5.30;;;;;;;16.38;62.10;100557.50;4975989;28;20050;-77
2022/05/07 08:13:42;;;;;;;10.27;6.30;;;;;;;16.55;61.65;100553.97;4970318;28;20050;-78
2022/05/07 08:16:09;;;;;;;10.18;5.32;;;;;;;16.48;61.78;100551.06;4997018;28;20046;-78
2022/05/07 08:18:37;;;;;;;12.40;5.53;;;;;;;16.45;62.05;100545.16;4968123;28;20137;-77
2022/05/07 08:21:05;;;;;;;10.27;5.43;;;;;;;16.63;61.11;100551.31;4981999;28;20042;-78
2022/05/07 08:23:32;;;;;;;11.80;5.80;;;;;;;16.59;60.97;100549.09;4982698;28;20049;-78
2022/05/07 08:25:59;;;;;;;13.32;5.68;;;;;;;16.60;60.92;100545.44;4996653;28;20441;-78
2022/05/07 08:28:26;;;;;;;9.45;5.40;;;;;;;16.65;61.21;100549.34;4999776;28;20054;-77
2022/05/07 08:30:53;;;;;;;9.13;5.30;;;;;;;16.65;61.19;100553.84;4996569;28;20046;-77
2022/05/07 08:33:21;;;;;;;14.10;5.75;;;;;;;16.70;60.69;100549.69;4979896;28;20060;-77
2022/05/07 08:35:48;;;;;;;6.10;4.95;;;;;;;16.77;59.50;100543.72;4983940;28;20057;-77
2022/05/07 08:38:18;;;;;;;7.20;5.35;;;;;;;16.93;57.85;100551.88;4977551;28;20061;-77
2022/05/07 08:40:44;;;;;;;6.93;5.32;;;;;;;16.94;57.19;100537.44;4965503;28;20056;-77
2022/05/07 08:43:11;;;;;;;6.82;4.50;;;;;;;16.98;56.82;100533.47;4982389;28;20149;-77
2022/05/07 08:45:39;;;;;;;7.00;4.63;;;;;;;16.90;55.68;100536.94;4984843;28;20052;-77
2022/05/07 08:48:08;;;;;;;10.10;4.45;;;;;;;17.09;55.17;100535.00;4965799;28;20414;-77
2022/05/07 08:50:34;;;;;;;6.35;4.50;;;;;;;17.12;55.78;100540.91;4995325;28;20076;-77
2022/05/07 08:53:02;;;;;;;7.20;4.90;;;;;;;17.11;56.14;100543.75;4965441;28;20134;-77
2022/05/07 08:55:30;;;;;;;4.93;4.03;;;;;;;17.14;55.96;100540.75;4968193;28;20069;-77
2022/05/07 08:57:57;;;;;;;8.00;4.10;;;;;;;17.23;55.45;100542.47;4965764;28;20050;-76
2022/05/07 09:00:26;;;;;;;8.05;4.07;;;;;;;17.37;55.11;100554.41;4981518;28;20038;-77
2022/05/07 09:02:58;;;;;;;6.30;3.53;;;;;;;17.30;51.20;100542.63;4981161;28;20046;-77
2022/05/07 09:05:36;;;;;;;5.43;3.17;;;;;;;17.32;49.81;100532.59;4966618;28;20445;-77
2022/05/07 09:08:04;;;;;;;5.80;3.05;;;;;;;17.41;52.32;100533.47;4971766;28;20041;-77
2022/05/07 09:10:37;;;;;;;5.43;2.83;;;;;;;17.44;50.92;100525.09;4982934;28;20398;-77
2022/05/07 09:13:16;;;;;;;5.30;3.03;;;;;;;17.46;50.04;100531.16;4985080;28;20049;-78
2022/05/07 09:15:51;;;;;;;8.27;2.83;;;;;;;17.51;48.06;100532.31;4965744;28;20046;-78
2022/05/07 09:18:20;;;;;;;3.38;2.53;;;;;;;17.52;50.73;100533.16;4978590;28;20495;-78
2022/05/07 09:21:19;;;;;;;5.60;2.70;;;;;;;17.49;44.63;100534.31;4963283;28;20437;-78
2022/05/07 09:23:50;;;;;;;5.15;3.10;;;;;;;17.66;47.78;100531.69;4895297;28;20101;-79
2022/05/07 09:26:44;;;;;;;4.45;2.65;;;;;;;17.50;46.09;100533.34;4998719;28;20065;-78
2022/05/07 09:29:12;;;;;;;5.63;2.88;;;;;;;17.65;47.62;100524.63;4927994;28;20465;-78
2022/05/07 09:31:44;;;;;;;6.75;2.63;;;;;;;17.70;46.99;100512.38;4996283;28;20034;-78
2022/05/07 09:37:01;;;;;;;4.15;2.47;;;;;;;17.67;48.28;100515.41;4961297;28;20133;-79
2022/05/07 09:39:32;;;;;;;5.47;2.92;;;;;;;17.67;47.50;100523.47;4970445;28;20095;-79
2022/05/07 09:42:00;;;;;;;5.05;3.05;;;;;;;17.82;47.04;100514.78;4985978;28;20042;-79
2022/05/07 09:44:28;;;;;;;3.47;2.30;;;;;;;17.86;47.54;100508.06;4972043;28;20038;-79
2022/05/07 09:46:56;;;;;;;5.95;2.65;;;;;;;17.92;48.35;100515.47;4954782;28;20663;-80
2022/05/07 09:49:25;;;;;;;4.28;2.20;;;;;;;18.03;45.91;100504.38;4989939;28;20054;-79
2022/05/07 09:51:53;;;;;;;3.85;2.40;;;;;;;18.11;45.40;100504.38;4990623;28;20046;-78
2022/05/07 09:59:55;;;;;;;3.25;2.55;;;;;;;18.13;42.69;100498.84;4974737;28;20058;-79
2022/05/07 10:03:00;;;;;;;4.07;2.42;;;;;;;18.07;42.65;100502.22;4984194;28;20070;-79
2022/05/07 10:05:30;;;;;;;3.83;2.83;;;;;;;18.18;44.68;100501.88;4952530;28;20084;-79
2022/05/07 10:08:13;;;;;;;9.35;2.60;;;;;;;18.27;45.71;100495.47;4983622;28;20125;-79
2022/05/07 10:10:42;;;;;;;6.03;2.53;;;;;;;18.17;42.57;100492.97;4954043;28;20402;-79
2022/05/07 10:13:09;;;;;;;4.53;2.47;;;;;;;18.22;43.69;100506.75;4953581;28;20065;-79
2022/05/07 10:15:35;;;;;;;4.85;2.67;;;;;;;18.20;41.71;100489.09;4984458;28;20390;-79
2022/05/07 10:18:06;;;;;;;6.38;2.72;;;;;;;18.27;41.71;100495.47;4969916;28;20093;-79
2022/05/07 10:20:44;;;;;;;4.85;2.65;;;;;;;18.16;41.15;100485.06;4959593;28;20397;-80
2022/05/07 10:23:12;;;;;;;4.22;2.50;;;;;;;18.34;43.86;100493.81;4954737;28;22325;-80
2022/05/07 10:25:43;;;;;;;3.90;2.40;;;;;;;18.31;43.43;100498.66;4970488;28;20054;-80
2022/05/07 10:28:14;;;;;;;5.38;2.22;;;;;;;18.29;41.88;100496.13;4973306;28;20117;-79
2022/05/07 10:30:51;;;;;;;4.65;2.35;;;;;;;18.36;40.98;100483.69;4964409;28;20113;-79
2022/05/07 10:33:19;;;;;;;3.10;2.20;;;;;;;18.36;42.85;100482.84;4954708;28;20042;-80
2022/05/07 10:35:55;;;;;;;4.55;2.40;;;;;;;18.41;42.47;100491.25;4956709;28;20046;-79
2022/05/07 10:38:33;;;;;;;6.35;2.60;;;;;;;18.42;42.21;100474.13;4959004;28;20047;-80
2022/05/07 10:41:04;;;;;;;3.13;2.15;;;;;;;18.44;45.51;100496.28;4967834;28;20046;-80
2022/05/07 10:43:30;;;;;;;5.43;2.33;;;;;;;18.55;43.96;100492.41;4982623;28;20050;-80
2022/05/07 10:46:08;;;;;;;4.18;2.42;;;;;;;18.49;40.39;100475.09;4986841;28;20049;-79
2022/05/07 10:48:59;;;;;;;3.97;2.20;;;;;;;18.38;41.55;100467.41;4964936;28;20066;-80
2022/05/07 10:51:30;;;;;;;4.90;2.53;;;;;;;18.58;43.50;100478.63;4955828;28;20085;-79
2022/05/07 10:54:00;;;;;;;13.40;2.67;;;;;;;18.73;41.05;100468.00;4958389;28;20034;-79
2022/05/07 10:56:29;;;;;;;3.47;2.25;;;;;;;18.70;41.81;100471.00;4978502;28;20043;-79
2022/05/07 10:58:59;;;;;;;7.60;2.40;;;;;;;18.77;41.92;100464.78;4984156;28;20397;-79
2022/05/07 11:01:27;;;;;;;3.83;2.60;;;;;;;18.76;42.42;100465.81;5002049;28;20454;-80
2022/05/07 11:04:05;;;;;;;5.45;2.33;;;;;;;18.76;42.57;100470.38;4989470;28;20143;-80
2022/05/07 11:06:33;;;;;;;4.50;2.63;;;;;;;18.86;42.31;100477.22;4968454;28;20050;-80
2022/05/07 11:08:59;;;;;;;7.55;2.35;;;;;;;18.92;42.03;100470.28;4972978;28;20042;-80
2022/05/07 11:11:26;;;;;;;2.30;2.00;;;;;;;18.73;39.63;100458.06;4986211;28;20046;-79
2022/05/07 11:13:55;;;;;;;3.80;2.00;;;;;;;18.83;40.46;100455.22;4968827;28;20657;-79
2022/05/07 11:16:23;;;;;;;3.15;2.08;;;;;;;18.80;40.31;100461.78;4965956;28;20042;-82
2022/05/07 11:18:52;;;;;;;6.72;2.63;;;;;;;18.92;39.41;100464.91;4965382;28;20042;-80
2022/05/07 11:21:23;;;;;;;7.50;2.25;;;;;;;18.89;39.19;100457.19;4968921;28;20043;-80
2022/05/07 11:23:55;;;;;;;;;;;;;;;18.63;39.20;100457.44;4970416;28;20501;-80
2022/05/07 11:26:22;;;;;;;8.00;2.53;;;;;;;18.92;43.29;100467.59;5002406;28;19925;-80
2022/05/07 11:28:49;;;;;;;3.80;2.30;;;;;;;19.00;41.23;100456.78;4984600;28;20050;-83
2022/05/07 11:31:25;;;;;;;3.00;2.42;;;;;;;19.01;39.90;100454.97;4983196;28;20100;-80
2022/05/07 11:34:26;;;;;;;3.03;2.20;;;;;;;19.03;40.07;100452.91;5000643;28;20054;-80
2022/05/07 11:36:53;;;;;;;5.57;2.47;;;;;;;19.23;40.31;100458.69;4922574;28;20054;-80
2022/05/07 11:39:21;;;;;;;5.68;3.20;;;;;;;19.20;41.51;100446.44;4972427;28;20046;-80
2022/05/07 11:41:53;;;;;;;6.82;2.67;;;;;;;19.21;40.87;100449.94;5001759;28;20050;-80
2022/05/07 11:47:22;;;;;;;7.85;2.90;;;;;;;19.20;41.44;100454.50;4965527;28;20133;-80
2022/05/07 11:50:04;;;;;;;3.15;2.30;;;;;;;19.19;39.32;100441.25;4982952;28;20046;-80
2022/05/07 11:52:30;;;;;;;6.63;2.25;;;;;;;19.32;40.81;100452.25;4980129;28;20042;-80
2022/05/07 11:55:03;;;;;;;4.18;2.38;;;;;;;19.25;38.90;100441.34;4984430;28;20047;-80
2022/05/07 11:57:30;;;;;;;;;;;;;;;19.15;40.26;100446.13;4997030;28;20053;-80
2022/05/07 12:00:31;;;;;;;5.60;2.40;;;;;;;19.23;38.37;100427.25;4964259;28;19942;-81
2022/05/07 12:03:01;;;;;;;5.30;2.53;;;;;;;19.33;39.82;100429.69;4931209;28;20046;-82
2022/05/07 12:05:40;;;;;;;2.63;2.30;;;;;;;19.27;38.57;100433.94;5002203;28;20475;-81
2022/05/07 12:08:15;;;;;;;7.32;2.40;;;;;;;19.33;39.07;100423.47;4957657;28;20046;-81